createdAt,value
2018-06-04T00:02:22.465Z,16.80
2018-06-04T00:04:50.893Z,16.80
2018-06-04T00:07:19.670Z,16.80
2018-06-04T00:09:52.266Z,16.80
2018-06-04T00:12:20.662Z,16.80
2018-06-04T00:14:51.386Z,16.80
2018-06-04T00:17:20.615Z,16.80
2018-06-04T00:19:49.025Z,16.70
2018-06-04T00:22:17.428Z,16.70
2018-06-04T00:24:45.912Z,16.70
2018-06-04T00:27:14.401Z,16.60
2018-06-04T00:29:44.268Z,16.50
2018-06-04T00:32:13.493Z,16.40
2018-06-04T00:34:42.542Z,16.30
2018-06-04T00:37:10.913Z,16.30
2018-06-04T00:39:39.360Z,16.40
2018-06-04T00:42:07.870Z,16.40
2018-06-04T00:44:36.855Z,16.40
2018-06-04T00:47:05.351Z,16.40
2018-06-04T00:49:33.972Z,16.50
2018-06-04T00:52:02.374Z,16.50
2018-06-04T00:54:30.817Z,16.50
2018-06-04T00:56:59.193Z,16.50
2018-06-04T00:59:27.954Z,16.50
2018-06-04T01:01:56.648Z,16.60
2018-06-04T01:04:25.315Z,16.70
2018-06-04T01:06:54.465Z,16.70
2018-06-04T01:09:23.075Z,16.70
2018-06-04T01:11:51.588Z,16.80
2018-06-04T01:14:21.370Z,16.80
2018-06-04T01:16:50.226Z,16.80
2018-06-04T01:19:18.582Z,16.70
2018-06-04T01:21:47.665Z,16.60
2018-06-04T01:24:17.487Z,16.60
2018-06-04T01:26:46.479Z,16.50
2018-06-04T01:29:15.095Z,16.40
2018-06-04T01:31:43.848Z,16.40
2018-06-04T01:34:13.222Z,16.30
2018-06-04T01:36:42.138Z,16.30
2018-06-04T01:39:10.613Z,16.20
2018-06-04T01:41:39.337Z,16.20
2018-06-04T01:44:07.753Z,16.20
2018-06-04T01:46:36.191Z,16.20
2018-06-04T01:49:04.674Z,16.20
2018-06-04T01:51:33.163Z,16.10
2018-06-04T01:54:01.570Z,16.00
2018-06-04T01:56:30.976Z,15.90
2018-06-04T01:59:00.073Z,15.80
2018-06-04T02:01:28.860Z,15.70
2018-06-04T02:03:57.277Z,15.60
2018-06-04T02:06:27.868Z,15.60
2018-06-04T02:08:57.037Z,15.60
2018-06-04T02:11:25.797Z,15.60
2018-06-04T02:13:54.297Z,15.50
2018-06-04T02:16:22.969Z,15.40
2018-06-04T02:18:51.546Z,15.50
2018-06-04T02:21:20.230Z,15.50
2018-06-04T02:23:48.628Z,15.40
2018-06-04T02:26:17.261Z,15.30
2018-06-04T02:28:45.689Z,15.20
2018-06-04T02:31:14.672Z,15.10
2018-06-04T02:33:43.635Z,15.00
2018-06-04T02:36:12.393Z,15.00
2018-06-04T02:38:40.872Z,15.20
2018-06-04T02:41:09.334Z,15.20
2018-06-04T02:43:37.828Z,15.20
2018-06-04T02:46:07.424Z,15.30
2018-06-04T02:48:35.876Z,15.30
2018-06-04T02:51:04.349Z,15.30
2018-06-04T02:53:32.696Z,15.30
2018-06-04T02:56:01.160Z,15.30
2018-06-04T02:58:29.565Z,15.30
2018-06-04T03:00:58.035Z,15.40
2018-06-04T03:03:26.517Z,15.30
2018-06-04T03:05:54.816Z,15.30
2018-06-04T03:08:23.297Z,15.30
2018-06-04T03:10:52.466Z,15.10
2018-06-04T03:13:21.621Z,15.00
2018-06-04T03:15:50.055Z,15.10
2018-06-04T03:18:18.646Z,15.10
2018-06-04T03:20:47.108Z,15.20
2018-06-04T03:23:15.506Z,15.20
2018-06-04T03:25:43.990Z,15.10
2018-06-04T03:28:13.014Z,15.00
2018-06-04T03:30:41.658Z,14.90
2018-06-04T03:33:10.478Z,14.90
2018-06-04T03:35:38.930Z,14.90
2018-06-04T03:38:07.398Z,14.90
2018-06-04T03:40:35.926Z,14.90
2018-06-04T03:43:04.390Z,14.90
2018-06-04T03:45:32.746Z,14.90
2018-06-04T03:48:01.417Z,14.90
2018-06-04T03:50:30.015Z,15.00
2018-06-04T03:52:58.434Z,15.10
2018-06-04T03:55:27.024Z,15.30
2018-06-04T03:57:55.694Z,15.50
2018-06-04T04:00:24.707Z,15.70
2018-06-04T04:02:53.102Z,15.80
2018-06-04T04:05:22.224Z,16.00
2018-06-04T04:07:51.705Z,16.10
2018-06-04T04:10:20.166Z,16.40
2018-06-04T04:12:48.596Z,16.70
2018-06-04T04:15:17.377Z,16.90
2018-06-04T04:17:46.449Z,17.10
2018-06-04T04:20:15.204Z,17.40
2018-06-04T04:22:43.530Z,17.60
2018-06-04T04:25:12.609Z,17.80
2018-06-04T04:27:41.074Z,17.80
2018-06-04T04:30:10.437Z,17.90
2018-06-04T04:32:39.019Z,18.20
2018-06-04T04:35:07.801Z,18.40
2018-06-04T04:37:36.226Z,18.70
2018-06-04T04:40:04.971Z,19.20
2018-06-04T04:42:33.417Z,19.40
2018-06-04T04:45:02.036Z,19.60
2018-06-04T04:47:30.570Z,19.80
2018-06-04T04:49:59.044Z,19.90
2018-06-04T04:52:27.879Z,20.00
2018-06-04T04:54:56.965Z,20.30
2018-06-04T04:57:25.456Z,20.70
2018-06-04T04:59:54.373Z,21.20
2018-06-04T05:02:23.137Z,21.50
2018-06-04T05:04:52.702Z,21.60
2018-06-04T05:07:21.166Z,21.70
2018-06-04T05:09:50.517Z,21.90
2018-06-04T05:12:19.228Z,22.30
2018-06-04T05:14:47.644Z,22.30
2018-06-04T05:17:16.078Z,22.60
2018-06-04T05:19:44.513Z,22.80
2018-06-04T05:22:13.026Z,22.90
2018-06-04T05:24:41.662Z,22.90
2018-06-04T05:27:10.504Z,22.80
2018-06-04T05:29:39.074Z,22.80
2018-06-04T05:32:07.553Z,22.90
2018-06-04T05:34:36.034Z,22.90
2018-06-04T05:37:05.191Z,22.80
2018-06-04T05:39:33.542Z,23.00
2018-06-04T05:42:02.123Z,23.00
2018-06-04T05:44:30.797Z,23.10
2018-06-04T05:46:59.891Z,23.10
2018-06-04T05:49:28.723Z,23.00
2018-06-04T05:51:59.148Z,23.10
2018-06-04T05:54:28.018Z,23.50
2018-06-04T05:56:59.315Z,23.90
2018-06-04T05:59:27.933Z,23.90
2018-06-04T06:01:56.318Z,24.20
2018-06-04T06:04:25.041Z,24.30
2018-06-04T06:06:54.183Z,24.30
2018-06-04T06:09:22.632Z,24.50
2018-06-04T06:11:51.256Z,25.00
2018-06-04T06:14:20.093Z,24.90
2018-06-04T06:16:50.799Z,24.80
2018-06-04T06:19:19.321Z,24.60
2018-06-04T06:21:47.884Z,24.80
2018-06-04T06:24:16.518Z,24.80
2018-06-04T06:26:45.314Z,24.80
2018-06-04T06:29:15.509Z,25.00
2018-06-04T06:31:44.524Z,24.80
2018-06-04T06:34:13.860Z,25.50
2018-06-04T06:36:42.288Z,25.70
2018-06-04T06:39:10.901Z,26.10
2018-06-04T06:41:39.633Z,26.30
2018-06-04T06:44:08.335Z,26.10
2018-06-04T06:49:05.742Z,27.10
2018-06-04T06:51:34.127Z,26.60
2018-06-04T06:54:04.102Z,26.80
2018-06-04T06:56:32.822Z,26.50
2018-06-04T06:59:01.170Z,25.90
2018-06-04T07:01:30.256Z,26.20
2018-06-04T07:03:58.627Z,26.90
2018-06-04T07:06:26.964Z,27.00
2018-06-04T07:08:55.550Z,26.90
2018-06-04T07:11:24.132Z,26.60
2018-06-04T07:13:52.586Z,26.50
2018-06-04T07:16:20.924Z,26.80
2018-06-04T07:18:50.568Z,27.10
2018-06-04T07:21:21.891Z,28.00
2018-06-04T07:23:50.328Z,29.20
2018-06-04T07:26:18.789Z,28.80
2018-06-04T07:28:47.227Z,27.00
2018-06-04T07:31:15.710Z,26.60
2018-06-04T07:33:44.093Z,27.00
2018-06-04T07:36:13.069Z,27.70
2018-06-04T07:38:41.529Z,27.40
2018-06-04T07:41:09.986Z,27.60
2018-06-04T07:43:38.423Z,27.60
2018-06-04T07:46:06.749Z,28.00
2018-06-04T07:48:35.317Z,28.30
2018-06-04T07:51:04.318Z,28.70
2018-06-04T07:53:32.702Z,29.50
2018-06-04T07:56:01.367Z,29.40
2018-06-04T07:58:30.512Z,28.50
2018-06-04T08:00:59.151Z,28.10
2018-06-04T08:03:28.808Z,28.20
2018-06-04T08:05:57.471Z,27.80
2018-06-04T08:08:26.301Z,27.20
2018-06-04T08:10:54.725Z,26.50
2018-06-04T08:13:23.055Z,25.80
2018-06-04T08:15:51.560Z,26.20
2018-06-04T08:18:19.948Z,26.40
2018-06-04T08:23:16.742Z,24.90
2018-06-04T08:25:45.099Z,24.20
2018-06-04T08:28:13.695Z,24.70
2018-06-04T08:30:42.524Z,25.80
2018-06-04T08:33:10.888Z,26.70
2018-06-04T08:35:39.360Z,27.30
2018-06-04T08:38:07.948Z,27.40
2018-06-04T08:40:37.294Z,27.80
2018-06-04T08:43:06.172Z,29.00
2018-06-04T08:45:35.224Z,28.60
2018-06-04T08:48:03.600Z,28.00
2018-06-04T08:50:32.131Z,28.00
2018-06-04T08:53:00.675Z,28.80
2018-06-04T08:55:29.105Z,28.30
2018-06-04T08:57:57.538Z,28.30
2018-06-04T09:00:26.162Z,28.80
2018-06-04T09:02:54.633Z,27.90
2018-06-04T09:05:23.514Z,28.20
2018-06-04T09:07:51.996Z,28.40
2018-06-04T09:10:20.332Z,27.50
2018-06-04T09:12:48.868Z,27.40
2018-06-04T09:15:17.688Z,27.70
2018-06-04T09:17:46.233Z,28.20
2018-06-04T09:20:15.263Z,26.60
2018-06-04T09:22:43.609Z,25.60
2018-06-04T09:25:12.012Z,25.80
2018-06-04T09:27:41.387Z,26.60
2018-06-04T09:30:10.016Z,27.30
2018-06-04T09:32:38.479Z,28.30
2018-06-04T09:35:08.020Z,29.00
2018-06-04T09:37:36.654Z,30.40
2018-06-04T09:40:10.000Z,30.80
2018-06-04T09:42:38.558Z,29.10
2018-06-04T09:45:07.451Z,27.00
2018-06-04T09:47:35.917Z,26.80
2018-06-04T09:50:04.283Z,25.90
2018-06-04T09:52:32.908Z,25.70
2018-06-04T09:55:01.322Z,26.50
2018-06-04T09:57:29.726Z,28.30
2018-06-04T09:59:59.272Z,28.60
2018-06-04T10:02:27.712Z,29.40
2018-06-04T10:04:56.194Z,27.90
2018-06-04T10:07:24.729Z,27.20
2018-06-04T10:09:56.617Z,26.50
2018-06-04T10:12:24.968Z,26.20
2018-06-04T10:14:53.643Z,26.00
2018-06-04T10:17:22.081Z,25.80
2018-06-04T10:19:50.444Z,27.10
2018-06-04T10:22:18.853Z,27.30
2018-06-04T10:24:47.277Z,26.90
2018-06-04T10:27:15.812Z,26.20
2018-06-04T10:29:44.387Z,25.60
2018-06-04T10:32:12.899Z,25.80
2018-06-04T10:34:41.383Z,26.40
2018-06-04T10:37:09.823Z,27.40
2018-06-04T10:39:38.261Z,28.30
2018-06-04T10:42:07.219Z,28.20
2018-06-04T10:44:36.472Z,27.90
2018-06-04T10:47:05.768Z,26.80
2018-06-04T10:52:02.431Z,26.20
2018-06-04T10:54:31.130Z,27.70
2018-06-04T10:56:59.462Z,29.10
2018-06-04T10:59:28.155Z,29.40
2018-06-04T11:01:56.565Z,28.20
2018-06-04T11:04:25.074Z,28.50
2018-06-04T11:06:53.522Z,28.20
2018-06-04T11:09:22.003Z,28.10
2018-06-04T11:11:50.429Z,27.60
2018-06-04T11:14:18.844Z,26.90
2018-06-04T11:16:47.393Z,27.60
2018-06-04T11:21:48.146Z,28.60
2018-06-04T11:24:17.028Z,28.30
2018-06-04T11:26:45.517Z,28.10
2018-06-04T11:29:14.024Z,27.70
2018-06-04T11:31:42.786Z,27.60
2018-06-04T11:34:11.470Z,28.70
2018-06-04T11:36:39.889Z,29.50
2018-06-04T11:39:08.431Z,29.40
2018-06-04T11:41:36.851Z,30.40
2018-06-04T11:44:05.261Z,29.70
2018-06-04T11:46:33.695Z,29.40
2018-06-04T11:49:02.106Z,29.90
2018-06-04T11:53:58.703Z,27.90
2018-06-04T11:56:27.210Z,28.20
2018-06-04T11:58:55.844Z,28.10
2018-06-04T12:01:24.546Z,28.50
2018-06-04T12:03:52.972Z,27.80
2018-06-04T12:06:22.067Z,27.70
2018-06-04T12:08:50.614Z,28.40
2018-06-04T12:11:19.115Z,29.10
2018-06-04T12:13:47.501Z,29.10
2018-06-04T12:16:18.104Z,28.50
2018-06-04T12:18:46.579Z,27.50
2018-06-04T12:21:15.089Z,26.90
2018-06-04T12:23:44.135Z,27.10
2018-06-04T12:26:12.531Z,27.60
2018-06-04T12:28:41.306Z,28.50
2018-06-04T12:31:12.239Z,28.70
2018-06-04T12:33:40.885Z,28.40
2018-06-04T12:36:10.418Z,29.10
2018-06-04T12:38:38.842Z,28.30
2018-06-04T12:41:07.195Z,27.50
2018-06-04T12:43:35.742Z,26.90
2018-06-04T12:46:04.154Z,26.10
2018-06-04T12:48:32.999Z,25.70
2018-06-04T12:51:02.112Z,25.10
2018-06-04T12:53:30.795Z,24.80
2018-06-04T12:55:59.213Z,25.00
2018-06-04T12:58:27.714Z,25.10
2018-06-04T13:00:56.764Z,25.00
2018-06-04T13:03:25.210Z,25.30
2018-06-04T13:05:53.607Z,25.90
2018-06-04T13:08:22.062Z,27.40
2018-06-04T13:10:50.820Z,27.90
2018-06-04T13:13:19.260Z,27.50
2018-06-04T13:15:48.088Z,27.40
2018-06-04T13:18:16.548Z,27.50
2018-06-04T13:20:45.015Z,27.20
2018-06-04T13:23:13.552Z,26.20
2018-06-04T13:25:41.962Z,25.20
2018-06-04T13:28:10.428Z,25.80
2018-06-04T13:30:38.793Z,25.60
2018-06-04T13:33:07.971Z,25.30
2018-06-04T13:35:36.425Z,25.80
2018-06-04T13:38:05.171Z,26.00
2018-06-04T13:40:35.078Z,26.10
2018-06-04T13:43:03.527Z,25.80
2018-06-04T13:45:33.228Z,25.70
2018-06-04T13:48:01.660Z,26.30
2018-06-04T13:50:30.961Z,26.40
2018-06-04T13:53:00.322Z,25.60
2018-06-04T13:55:30.236Z,25.60
2018-06-04T13:57:58.638Z,25.30
2018-06-04T14:00:27.203Z,25.00
2018-06-04T14:02:55.993Z,25.40
2018-06-04T14:05:24.392Z,25.60
2018-06-04T14:07:52.928Z,26.20
2018-06-04T14:10:21.246Z,25.90
2018-06-04T14:12:50.025Z,25.60
2018-06-04T14:15:19.656Z,25.40
2018-06-04T14:17:48.098Z,25.40
2018-06-04T14:20:17.545Z,25.30
2018-06-04T14:22:46.069Z,25.00
2018-06-04T14:25:16.676Z,24.80
2018-06-04T14:27:45.087Z,24.70
2018-06-04T14:30:17.205Z,24.90
2018-06-04T14:32:45.781Z,24.80
2018-06-04T14:35:15.174Z,25.20
2018-06-04T14:37:43.612Z,25.20
2018-06-04T14:40:12.357Z,25.50
2018-06-04T14:42:40.870Z,25.50
2018-06-04T14:45:09.432Z,25.10
2018-06-04T14:47:43.103Z,25.20
2018-06-04T14:50:12.106Z,25.10
2018-06-04T14:52:40.531Z,25.00
2018-06-04T14:55:09.521Z,25.10
2018-06-04T14:57:37.928Z,24.60
2018-06-04T15:00:06.831Z,24.40
2018-06-04T15:02:35.305Z,24.60
2018-06-04T15:05:04.196Z,24.80
2018-06-04T15:07:32.703Z,24.90
2018-06-04T15:10:01.846Z,24.70
2018-06-04T15:12:30.250Z,24.50
2018-06-04T15:14:58.810Z,24.30
2018-06-04T15:17:28.331Z,24.30
2018-06-04T15:19:56.857Z,24.60
2018-06-04T15:22:25.733Z,24.60
2018-06-04T15:24:54.174Z,24.50
2018-06-04T15:27:22.813Z,24.40
2018-06-04T15:29:53.820Z,24.40
2018-06-04T15:32:23.041Z,24.70
2018-06-04T15:34:51.566Z,24.30
2018-06-04T15:37:19.984Z,24.00
2018-06-04T15:39:48.797Z,24.10
2018-06-04T15:42:17.416Z,24.10
2018-06-04T15:44:45.916Z,24.10
2018-06-04T15:47:14.295Z,24.10
2018-06-04T15:49:42.717Z,24.00
2018-06-04T15:52:11.319Z,24.10
2018-06-04T15:54:39.738Z,23.90
2018-06-04T15:57:08.253Z,23.90
2018-06-04T15:59:36.685Z,23.90
2018-06-04T16:02:05.335Z,24.10
2018-06-04T16:04:33.852Z,24.10
2018-06-04T16:07:02.587Z,24.00
2018-06-04T16:09:31.561Z,23.80
2018-06-04T16:12:00.032Z,23.90
2018-06-04T16:14:29.361Z,24.00
2018-06-04T16:16:57.796Z,23.90
2018-06-04T16:19:26.418Z,23.80
2018-06-04T16:21:54.763Z,23.80
2018-06-04T16:24:23.327Z,23.90
2018-06-04T16:26:51.673Z,24.10
2018-06-04T16:29:20.148Z,24.00
2018-06-04T16:31:48.765Z,24.00
2018-06-04T16:34:18.193Z,24.10
2018-06-04T16:36:46.972Z,24.20
2018-06-04T16:39:19.807Z,24.00
2018-06-04T16:41:48.382Z,23.80
2018-06-04T16:44:16.964Z,23.60
2018-06-04T16:46:45.602Z,23.40
2018-06-04T16:49:14.201Z,23.40
2018-06-04T16:51:42.667Z,23.40
2018-06-04T16:54:11.355Z,23.50
2018-06-04T16:56:40.334Z,23.50
2018-06-04T16:59:09.948Z,23.40
2018-06-04T17:01:40.305Z,23.40
2018-06-04T17:04:11.490Z,23.30
2018-06-04T17:06:41.695Z,23.20
2018-06-04T17:09:10.593Z,23.20
2018-06-04T17:11:39.551Z,23.20
2018-06-04T17:14:08.096Z,23.20
2018-06-04T17:16:37.034Z,23.00
2018-06-04T17:19:06.890Z,23.00
2018-06-04T17:21:35.680Z,23.10
2018-06-04T17:24:05.014Z,23.00
2018-06-04T17:26:34.416Z,23.00
2018-06-04T17:29:03.109Z,22.90
2018-06-04T17:31:32.692Z,22.90
2018-06-04T17:39:23.769Z,22.70
2018-06-04T17:41:52.658Z,22.70
2018-06-04T17:44:21.219Z,22.60
2018-06-04T17:46:49.978Z,22.60
2018-06-04T17:49:19.687Z,22.60
2018-06-04T17:51:48.723Z,22.60
2018-06-04T17:54:17.653Z,22.60
2018-06-04T17:56:46.186Z,22.50
2018-06-04T17:59:15.630Z,22.50
2018-06-04T18:01:44.689Z,22.40
2018-06-04T18:04:13.275Z,22.30
2018-06-04T18:06:42.140Z,22.30
2018-06-04T18:09:13.630Z,22.30
2018-06-04T18:11:46.976Z,22.30
2018-06-04T18:14:15.876Z,22.30
2018-06-04T18:16:48.119Z,22.20
2018-06-04T18:19:17.296Z,22.20
2018-06-04T18:21:46.151Z,22.10
2018-06-04T18:24:20.406Z,22.10
2018-06-04T18:26:54.053Z,22.10
2018-06-04T18:29:26.583Z,22.00
2018-06-04T18:31:55.212Z,21.90
2018-06-04T18:34:23.632Z,21.70
2018-06-04T18:36:52.106Z,21.60
2018-06-04T18:39:20.603Z,21.50
2018-06-04T18:41:49.124Z,21.40
2018-06-04T18:44:18.114Z,21.30
2018-06-04T18:46:47.408Z,21.30
2018-06-04T18:57:54.792Z,21.00
2018-06-04T19:00:26.673Z,20.90
2018-06-04T19:02:55.294Z,20.80
2018-06-04T19:05:24.131Z,20.80
2018-06-04T19:07:53.202Z,20.70
2018-06-04T19:10:21.696Z,20.70
2018-06-04T19:12:53.584Z,20.60
2018-06-04T19:15:22.029Z,20.50
2018-06-04T19:17:50.941Z,20.40
2018-06-04T19:20:20.403Z,20.40
2018-06-04T19:22:49.029Z,20.30
2018-06-04T19:25:18.245Z,20.30
2018-06-04T19:27:47.541Z,20.20
2018-06-04T19:30:16.553Z,20.10
2018-06-04T19:32:44.939Z,20.00
2018-06-04T19:35:13.426Z,20.00
2018-06-04T19:37:41.921Z,19.90
2018-06-04T19:40:10.447Z,19.80
2018-06-04T19:42:39.141Z,19.70
2018-06-04T19:45:07.616Z,19.70
2018-06-04T19:47:36.088Z,19.60
2018-06-04T19:50:04.770Z,19.50
2018-06-04T19:52:33.679Z,19.50
2018-06-04T19:55:02.132Z,19.40
2018-06-04T19:57:30.698Z,19.30
2018-06-04T20:00:00.002Z,19.30
2018-06-04T20:02:29.410Z,19.20
2018-06-04T20:04:58.761Z,19.10
2018-06-04T20:07:28.495Z,19.10
2018-06-04T20:09:57.356Z,19.10
2018-06-04T20:12:26.838Z,19.00
2018-06-04T20:14:55.388Z,18.90
2018-06-04T20:17:24.059Z,18.80
2018-06-04T20:19:52.509Z,18.70
2018-06-04T20:22:21.294Z,18.70
2018-06-04T20:24:49.781Z,18.60
2018-06-04T20:27:18.353Z,18.50
2018-06-04T20:29:46.878Z,18.50
2018-06-04T20:32:15.940Z,18.40
2018-06-04T20:34:45.726Z,18.30
2018-06-04T20:39:43.755Z,18.20
2018-06-04T20:42:12.343Z,18.10
2018-06-04T20:44:41.579Z,18.10
2018-06-04T20:47:10.252Z,18.00
2018-06-04T20:49:38.701Z,18.00
2018-06-04T20:52:07.854Z,18.00
2018-06-04T20:54:36.341Z,17.90
2018-06-04T20:57:08.733Z,17.90
2018-06-04T20:59:37.805Z,17.80
2018-06-04T21:02:06.330Z,17.70
2018-06-04T21:04:35.472Z,17.70
2018-06-04T21:07:04.455Z,17.60
2018-06-04T21:09:32.985Z,17.50
2018-06-04T21:12:01.661Z,17.40
2018-06-04T21:14:30.029Z,17.40
2018-06-04T21:16:58.539Z,17.30
2018-06-04T21:19:27.034Z,17.30
2018-06-04T21:21:55.629Z,17.20
2018-06-04T21:24:24.213Z,17.20
2018-06-04T21:26:52.626Z,17.10
2018-06-04T21:29:21.055Z,17.00
2018-06-04T21:31:49.648Z,17.00
2018-06-04T21:34:18.108Z,16.90
2018-06-04T21:36:46.719Z,16.80
2018-06-04T21:39:15.151Z,16.80
2018-06-04T21:41:43.720Z,16.70
2018-06-04T21:44:12.299Z,16.60
2018-06-04T21:46:40.827Z,16.60
2018-06-04T21:49:09.376Z,16.50
2018-06-04T21:51:37.776Z,16.50
2018-06-04T21:54:06.371Z,16.40
2018-06-04T21:56:34.780Z,16.40
2018-06-04T21:59:03.148Z,16.40
2018-06-04T22:01:31.604Z,16.40
2018-06-04T22:04:00.002Z,16.30
2018-06-04T22:06:28.529Z,16.30
2018-06-04T22:08:57.061Z,16.30
2018-06-04T22:11:26.612Z,16.20
2018-06-04T22:13:57.431Z,16.20
2018-06-04T22:16:26.449Z,16.20
2018-06-04T22:18:54.887Z,16.20
2018-06-04T22:21:24.097Z,16.10
2018-06-04T22:23:52.578Z,16.10
2018-06-04T22:26:20.908Z,16.00
2018-06-04T22:28:49.435Z,16.00
2018-06-04T22:31:17.866Z,16.00
2018-06-04T22:33:46.290Z,15.90
2018-06-04T22:36:14.740Z,15.90
2018-06-04T22:38:46.254Z,15.90
2018-06-04T22:41:14.611Z,15.90
2018-06-04T22:43:43.165Z,15.80
2018-06-04T22:46:11.609Z,15.70
2018-06-04T22:48:40.075Z,15.70
2018-06-04T22:51:08.436Z,15.70
2018-06-04T22:53:36.951Z,15.70
2018-06-04T22:56:05.538Z,15.70
2018-06-04T22:58:34.010Z,15.70
2018-06-04T23:01:02.386Z,15.60
2018-06-04T23:03:30.820Z,15.60
2018-06-04T23:05:59.253Z,15.50
2018-06-04T23:08:27.756Z,15.50
2018-06-04T23:10:56.183Z,15.50
2018-06-04T23:13:24.635Z,15.40
2018-06-04T23:15:52.983Z,15.40
2018-06-04T23:18:21.388Z,15.40
2018-06-04T23:20:49.889Z,15.40
2018-06-04T23:23:18.375Z,15.20
2018-06-04T23:25:46.769Z,15.20
2018-06-04T23:28:15.185Z,15.10
2018-06-04T23:30:43.636Z,15.20
2018-06-04T23:33:12.051Z,15.10
2018-06-04T23:35:40.376Z,15.10
2018-06-04T23:38:08.806Z,15.10
2018-06-04T23:40:37.408Z,15.10
2018-06-04T23:43:05.874Z,15.00
2018-06-04T23:45:34.300Z,15.00
2018-06-04T23:48:02.770Z,14.90
2018-06-04T23:50:31.221Z,14.80
2018-06-04T23:52:59.643Z,14.70
2018-06-04T23:55:28.005Z,14.70
2018-06-04T23:57:56.408Z,14.70
